Time;durP1;ratioP1;P1;durP2;ratioP2;P2;SDS_P1;SDS_P2;PMS_P1;PMS_P2;Temp;Humidity;BMP_temperature;BMP_pressure;BME280_temperature;BME280_humidity;BME280_pressure;Samples;Min_cycle;Max_cycle;Signal;HPM_P1;HPM_P2
2021/08/09 00:01:23;;;;;;;6.65;1.30;;;14.40;99.70;;;;;;5008942;28;20032;-85
2021/08/09 00:03:48;;;;;;;5.20;1.40;;;14.40;99.70;;;;;;5009787;28;20026;-84
2021/08/09 00:06:14;;;;;;;5.15;1.42;;;14.40;99.70;;;;;;5016586;28;20034;-85
2021/08/09 00:08:39;;;;;;;7.60;1.70;;;14.40;99.70;;;;;;5007556;28;20032;-85
2021/08/09 00:11:05;;;;;;;5.55;1.50;;;14.40;99.70;;;;;;5005287;28;20038;-85
2021/08/09 00:13:30;;;;;;;9.43;1.90;;;14.30;99.80;;;;;;5002051;28;20106;-85
2021/08/09 00:15:57;;;;;;;7.53;1.65;;;14.30;99.80;;;;;;4997179;28;20821;-85
2021/08/09 00:18:25;;;;;;;6.05;1.30;;;14.30;99.80;;;;;;4999538;28;20105;-85
2021/08/09 00:20:52;;;;;;;7.10;1.10;;;14.30;99.90;;;;;;5010738;28;20036;-85
2021/08/09 00:23:18;;;;;;;6.25;1.10;;;14.20;99.90;;;;;;5006981;28;20492;-85
2021/08/09 00:25:43;;;;;;;6.20;1.80;;;14.20;99.90;;;;;;5011932;28;20030;-85
2021/08/09 00:28:09;;;;;;;4.63;1.52;;;14.20;99.90;;;;;;5002582;28;20048;-85
2021/08/09 00:30:34;;;;;;;7.72;1.33;;;14.20;99.90;;;;;;5009212;28;20041;-85
2021/08/09 00:33:00;;;;;;;11.38;1.92;;;14.20;99.90;;;;;;5011441;28;20033;-85
2021/08/09 00:35:25;;;;;;;8.40;1.52;;;14.20;99.90;;;;;;5001409;28;20065;-84
2021/08/09 00:37:51;;;;;;;4.60;1.55;;;14.20;99.90;;;;;;5013173;28;20061;-85
2021/08/09 00:40:16;;;;;;;7.28;1.90;;;14.20;99.90;;;;;;5010687;28;20080;-85
2021/08/09 00:42:42;;;;;;;8.80;1.50;;;14.20;99.90;;;;;;5009797;28;20029;-85
2021/08/09 00:45:08;;;;;;;10.88;1.85;;;14.20;99.90;;;;;;5002084;28;20037;-85
2021/08/09 00:47:33;;;;;;;5.72;1.58;;;14.10;99.90;;;;;;5014635;28;20022;-85
2021/08/09 00:50:00;;;;;;;7.82;1.65;;;14.10;99.90;;;;;;5001793;28;20040;-85
2021/08/09 00:52:26;;;;;;;6.65;1.45;;;14.10;99.90;;;;;;5008247;28;20719;-86
2021/08/09 00:54:51;;;;;;;8.10;1.40;;;14.10;99.90;;;;;;5015524;28;20033;-86
2021/08/09 00:57:17;;;;;;;8.02;1.80;;;14.10;99.90;;;;;;5006650;28;20026;-87
2021/08/09 00:59:43;;;;;;;6.60;1.65;;;14.10;99.90;;;;;;5006853;28;20065;-86
2021/08/09 01:02:09;;;;;;;7.00;1.65;;;14.10;99.90;;;;;;5005501;28;20034;-86
2021/08/09 01:04:34;;;;;;;5.07;1.42;;;14.10;99.90;;;;;;4997141;28;20066;-86
2021/08/09 01:07:00;;;;;;;7.53;1.45;;;14.10;99.90;;;;;;5000303;28;20399;-86
2021/08/09 01:09:34;;;;;;;7.03;1.95;;;14.10;99.90;;;;;;5014103;28;20030;-87
2021/08/09 01:12:26;;;;;;;9.50;2.35;;;14.10;99.90;;;;;;5002313;28;20034;-86
2021/08/09 01:15:00;;;;;;;4.88;1.48;;;14.10;99.90;;;;;;5008360;28;20029;-86
2021/08/09 01:17:32;;;;;;;7.80;1.45;;;14.00;99.90;;;;;;5010559;28;20478;-86
2021/08/09 01:20:19;;;;;;;8.57;1.55;;;14.00;99.90;;;;;;5012717;28;20026;-86
2021/08/09 01:23:08;;;;;;;8.45;2.25;;;14.00;99.90;;;;;;5010197;28;20029;-86
2021/08/09 01:25:49;;;;;;;10.32;1.52;;;14.00;99.90;;;;;;5009523;28;20136;-86
2021/08/09 01:28:15;;;;;;;6.07;1.63;;;14.00;99.90;;;;;;5000331;28;20504;-86
2021/08/09 01:30:42;;;;;;;8.13;1.65;;;13.90;99.90;;;;;;5008112;28;20050;-85
2021/08/09 01:33:10;;;;;;;13.40;1.90;;;13.90;99.90;;;;;;5014920;28;20026;-86
2021/08/09 01:35:37;;;;;;;7.40;1.95;;;13.90;99.90;;;;;;5014457;28;20022;-86
2021/08/09 01:38:03;;;;;;;9.13;1.60;;;13.80;99.90;;;;;;5014115;28;20033;-86
2021/08/09 01:40:31;;;;;;;8.80;2.03;;;13.90;99.90;;;;;;5014128;28;20036;-87
2021/08/09 01:42:58;;;;;;;7.53;1.35;;;13.80;99.90;;;;;;5013586;28;20502;-86
2021/08/09 01:45:24;;;;;;;7.68;1.55;;;13.80;99.90;;;;;;5004241;28;20042;-86
2021/08/09 01:47:51;;;;;;;9.27;1.83;;;13.80;99.90;;;;;;5013110;28;20016;-86
2021/08/09 01:50:16;;;;;;;9.25;1.30;;;13.80;99.90;;;;;;5014809;28;20042;-87
2021/08/09 01:52:44;;;;;;;9.50;1.83;;;13.80;99.90;;;;;;5005554;28;20166;-86
2021/08/09 01:55:12;;;;;;;11.73;1.80;;;13.80;99.90;;;;;;4999693;28;20069;-87
2021/08/09 01:57:38;;;;;;;9.30;1.65;;;13.80;99.90;;;;;;5009034;28;20114;-86
2021/08/09 02:00:14;;;;;;;11.15;2.08;;;13.80;99.90;;;;;;5012663;28;20117;-86
2021/08/09 02:02:39;;;;;;;9.52;1.30;;;13.90;99.90;;;;;;5014138;28;20053;-86
2021/08/09 02:05:14;;;;;;;10.23;1.23;;;13.80;99.90;;;;;;5005225;28;20108;-87
2021/08/09 02:07:42;;;;;;;7.55;1.42;;;13.90;99.90;;;;;;5009241;28;20038;-86
2021/08/09 02:10:11;;;;;;;6.65;1.55;;;13.90;99.90;;;;;;5013860;28;20116;-86
2021/08/09 02:13:11;;;;;;;7.13;1.77;;;13.90;99.90;;;;;;5006015;28;20029;-86
2021/08/09 02:15:45;;;;;;;8.07;1.65;;;13.90;99.90;;;;;;5005186;28;20057;-86
2021/08/09 02:18:33;;;;;;;9.75;1.83;;;13.90;99.90;;;;;;5010888;28;20064;-86
2021/08/09 02:21:04;;;;;;;7.53;1.35;;;13.90;99.90;;;;;;5009497;28;20141;-86
2021/08/09 02:23:58;;;;;;;11.18;2.25;;;13.90;99.90;;;;;;5011497;28;20508;-86
2021/08/09 02:26:31;;;;;;;9.20;2.30;;;14.00;99.90;;;;;;5004857;28;20030;-86
2021/08/09 02:29:04;;;;;;;10.05;2.20;;;13.90;99.90;;;;;;5000398;28;20382;-86
2021/08/09 02:31:30;;;;;;;7.53;1.48;;;14.00;99.90;;;;;;5010968;28;20029;-86
2021/08/09 02:33:57;;;;;;;8.73;1.77;;;14.00;99.90;;;;;;5011707;28;20049;-86
2021/08/09 02:36:23;;;;;;;9.55;1.63;;;14.00;99.90;;;;;;5001995;28;20031;-86
2021/08/09 02:38:50;;;;;;;12.43;1.63;;;14.00;99.90;;;;;;5013423;28;20029;-86
2021/08/09 02:41:16;;;;;;;8.73;1.70;;;14.00;99.90;;;;;;5004924;28;20042;-86
2021/08/09 02:43:41;;;;;;;7.38;1.73;;;14.00;99.90;;;;;;4997169;28;20041;-86
2021/08/09 02:46:07;;;;;;;5.93;1.67;;;14.00;99.90;;;;;;5009288;28;20401;-86
2021/08/09 02:48:34;;;;;;;6.18;1.45;;;13.90;99.90;;;;;;5006304;28;20538;-86
2021/08/09 02:51:00;;;;;;;10.30;1.52;;;13.90;99.90;;;;;;5009143;28;20079;-86
2021/08/09 02:53:26;;;;;;;6.30;1.77;;;13.90;99.90;;;;;;5009652;28;20026;-86
2021/08/09 02:55:56;;;;;;;8.73;1.27;;;13.90;99.90;;;;;;4999196;28;20072;-86
2021/08/09 02:58:22;;;;;;;10.60;1.40;;;13.90;99.90;;;;;;5012577;28;20493;-84
2021/08/09 03:00:49;;;;;;;5.70;1.25;;;13.80;99.90;;;;;;5010242;28;20073;-84
2021/08/09 03:03:21;;;;;;;8.55;1.55;;;13.80;99.90;;;;;;5010962;28;20030;-84
2021/08/09 03:05:49;;;;;;;9.63;1.67;;;13.90;99.90;;;;;;5013288;28;20056;-86
2021/08/09 03:08:17;;;;;;;9.13;1.58;;;13.90;99.90;;;;;;5015656;28;20030;-86
2021/08/09 03:10:42;;;;;;;5.88;1.35;;;13.90;99.90;;;;;;5010731;28;20038;-86
2021/08/09 03:13:10;;;;;;;14.98;1.75;;;13.80;99.90;;;;;;5018105;28;20032;-84
2021/08/09 03:15:37;;;;;;;7.30;1.95;;;13.90;99.90;;;;;;5014872;28;20053;-84
2021/08/09 03:18:02;;;;;;;14.93;1.73;;;13.80;99.90;;;;;;5001818;28;20121;-84
2021/08/09 03:20:30;;;;;;;13.90;2.00;;;13.80;99.90;;;;;;5013019;28;20076;-84
2021/08/09 03:22:55;;;;;;;8.02;1.77;;;13.80;99.90;;;;;;5008344;28;20045;-84
2021/08/09 03:25:21;;;;;;;7.93;1.23;;;13.80;99.90;;;;;;5007965;28;20034;-84
2021/08/09 03:27:46;;;;;;;7.30;1.92;;;13.80;99.90;;;;;;5013366;28;20030;-85
2021/08/09 03:30:12;;;;;;;12.23;1.48;;;13.90;99.90;;;;;;5012325;28;20046;-84
2021/08/09 03:32:38;;;;;;;10.32;2.28;;;13.80;99.90;;;;;;5007739;28;20032;-84
2021/08/09 03:35:04;;;;;;;9.35;1.50;;;13.80;99.90;;;;;;5013920;28;20034;-84
2021/08/09 03:37:29;;;;;;;10.18;2.03;;;13.80;99.90;;;;;;5015962;28;20389;-86
2021/08/09 03:39:55;;;;;;;7.95;1.45;;;13.80;99.90;;;;;;5009864;28;20034;-86
2021/08/09 03:42:20;;;;;;;10.50;1.85;;;13.80;99.90;;;;;;5014752;28;20037;-86
2021/08/09 03:44:46;;;;;;;9.75;1.90;;;13.80;99.90;;;;;;5006444;28;20034;-86
2021/08/09 03:47:12;;;;;;;10.00;1.67;;;13.80;99.90;;;;;;5014138;28;20048;-86
2021/08/09 03:49:37;;;;;;;11.05;1.63;;;13.80;99.90;;;;;;5014034;28;20034;-87
2021/08/09 03:52:03;;;;;;;7.82;1.92;;;13.70;99.90;;;;;;5008816;28;20469;-86
2021/08/09 03:54:29;;;;;;;8.52;1.70;;;13.80;99.90;;;;;;5006633;28;20072;-86
2021/08/09 03:56:54;;;;;;;9.13;1.73;;;13.70;99.90;;;;;;5008074;28;20034;-86
2021/08/09 03:59:20;;;;;;;8.30;1.77;;;13.70;99.90;;;;;;5028571;28;20026;-86
2021/08/09 04:01:48;;;;;;;10.35;1.67;;;13.70;99.90;;;;;;5007416;28;20033;-86
2021/08/09 04:04:14;;;;;;;8.25;1.52;;;13.70;99.90;;;;;;5010769;28;20046;-87
2021/08/09 04:06:39;;;;;;;6.70;1.50;;;13.70;99.90;;;;;;5012736;28;20117;-86
2021/08/09 04:09:08;;;;;;;6.40;1.23;;;13.70;99.90;;;;;;5011199;28;20137;-86
2021/08/09 04:11:36;;;;;;;10.07;2.38;;;13.70;99.90;;;;;;5008675;28;20027;-86
2021/08/09 04:14:03;;;;;;;6.55;1.52;;;13.70;99.90;;;;;;5007964;28;20025;-86
2021/08/09 04:16:29;;;;;;;6.22;1.85;;;13.70;99.90;;;;;;5014990;28;20026;-86
2021/08/09 04:18:55;;;;;;;4.63;1.60;;;13.70;99.90;;;;;;5014212;28;20528;-84
2021/08/09 04:21:21;;;;;;;10.23;2.03;;;13.70;99.90;;;;;;5012662;28;20117;-84
2021/08/09 04:23:48;;;;;;;8.50;1.70;;;13.70;99.90;;;;;;5009529;28;20025;-86
2021/08/09 04:26:15;;;;;;;5.07;1.20;;;13.70;99.90;;;;;;5010301;28;20034;-86
2021/08/09 04:28:42;;;;;;;9.13;1.67;;;13.70;99.90;;;;;;5010055;28;20108;-83
2021/08/09 04:31:07;;;;;;;12.20;1.80;;;13.80;99.90;;;;;;5015609;28;20124;-84
2021/08/09 04:33:43;;;;;;;11.07;1.65;;;13.80;99.90;;;;;;5013853;28;20111;-84
2021/08/09 04:36:09;;;;;;;4.60;1.42;;;13.80;99.90;;;;;;5013849;28;20042;-86
2021/08/09 04:38:35;;;;;;;8.50;1.40;;;13.90;99.90;;;;;;5009559;28;20053;-84
2021/08/09 04:41:07;;;;;;;10.80;1.48;;;13.90;99.90;;;;;;5011741;28;20069;-85
2021/08/09 04:43:37;;;;;;;5.15;1.80;;;13.90;99.90;;;;;;5008626;28;20068;-85
2021/08/09 04:46:04;;;;;;;9.50;1.70;;;13.90;99.90;;;;;;5028653;28;20033;-85
2021/08/09 04:48:30;;;;;;;10.60;2.75;;;14.00;99.90;;;;;;5015335;28;20093;-85
2021/08/09 04:50:56;;;;;;;9.85;1.90;;;14.00;99.90;;;;;;5014790;28;20489;-85
2021/08/09 04:53:21;;;;;;;10.07;2.10;;;14.00;99.90;;;;;;5007823;28;20074;-86
2021/08/09 04:55:47;;;;;;;5.07;1.73;;;14.10;99.90;;;;;;5013739;28;20038;-85
2021/08/09 04:58:12;;;;;;;8.05;1.92;;;14.10;99.90;;;;;;5010902;28;21161;-85
2021/08/09 05:00:38;;;;;;;8.70;1.88;;;14.10;99.90;;;;;;5009721;28;20038;-86
2021/08/09 05:03:03;;;;;;;8.25;1.80;;;14.10;99.90;;;;;;5008383;28;20536;-85
2021/08/09 05:05:29;;;;;;;6.47;1.77;;;14.10;99.90;;;;;;5012580;28;20512;-87
2021/08/09 05:07:55;;;;;;;13.40;2.50;;;14.20;99.90;;;;;;5011382;28;20075;-86
2021/08/09 05:10:22;;;;;;;7.85;2.03;;;14.20;99.90;;;;;;5014308;28;20079;-86
2021/08/09 05:12:48;;;;;;;6.57;1.65;;;14.20;99.90;;;;;;5014972;28;20026;-84
2021/08/09 05:15:13;;;;;;;10.70;2.28;;;14.20;99.90;;;;;;5013975;28;20393;-84
2021/08/09 05:17:39;;;;;;;10.35;1.88;;;14.20;99.90;;;;;;5014110;28;20029;-86
2021/08/09 05:20:06;;;;;;;10.70;3.25;;;14.20;99.90;;;;;;5009884;28;20030;-86
2021/08/09 05:22:33;;;;;;;9.63;1.50;;;14.20;99.90;;;;;;5010611;28;20037;-84
2021/08/09 05:24:59;;;;;;;12.05;3.00;;;14.30;99.90;;;;;;5014110;28;20083;-88
2021/08/09 05:27:24;;;;;;;8.30;2.70;;;14.30;99.90;;;;;;5015252;28;20504;-85
2021/08/09 05:29:50;;;;;;;20.38;2.88;;;14.30;99.90;;;;;;5008094;28;20057;-85
2021/08/09 05:32:15;;;;;;;10.55;2.13;;;14.30;99.90;;;;;;5006808;28;20205;-84
2021/08/09 05:34:45;;;;;;;7.57;2.55;;;14.30;99.90;;;;;;5009691;28;20034;-85
2021/08/09 05:37:11;;;;;;;8.15;2.17;;;14.40;99.90;;;;;;5013936;28;20034;-85
2021/08/09 05:39:36;;;;;;;8.73;2.20;;;14.40;99.90;;;;;;5015148;28;20136;-85
2021/08/09 05:42:02;;;;;;;5.43;2.00;;;14.40;99.90;;;;;;5010504;28;20049;-85
2021/08/09 05:44:27;;;;;;;7.75;1.90;;;14.50;99.90;;;;;;5007654;28;20120;-85
2021/08/09 05:46:53;;;;;;;6.50;1.88;;;14.60;99.90;;;;;;5010523;28;20028;-86
2021/08/09 05:49:18;;;;;;;6.72;2.67;;;14.50;99.90;;;;;;5006807;28;20038;-85
2021/08/09 05:51:44;;;;;;;6.20;2.10;;;14.60;99.90;;;;;;5004705;28;20025;-86
2021/08/09 05:54:09;;;;;;;5.95;1.80;;;14.60;99.90;;;;;;5001900;28;20029;-86
2021/08/09 05:56:35;;;;;;;7.55;2.20;;;14.60;99.90;;;;;;5009836;28;20026;-85
2021/08/09 05:59:01;;;;;;;7.10;2.33;;;14.60;99.90;;;;;;5011511;28;20037;-85
2021/08/09 06:01:26;;;;;;;7.22;2.15;;;14.60;99.90;;;;;;5010245;28;20109;-86
2021/08/09 06:03:52;;;;;;;9.25;2.38;;;14.60;99.90;;;;;;5010504;28;20038;-86
2021/08/09 06:06:19;;;;;;;12.43;2.55;;;14.50;99.90;;;;;;5010896;28;20038;-85
2021/08/09 06:08:45;;;;;;;10.13;2.30;;;14.50;99.90;;;;;;5013310;28;20032;-88
2021/08/09 06:11:11;;;;;;;10.95;3.03;;;14.50;99.90;;;;;;5013006;28;21830;-84
2021/08/09 06:13:37;;;;;;;6.50;2.00;;;14.50;99.90;;;;;;5007759;28;20030;-85
2021/08/09 06:16:02;;;;;;;10.10;2.72;;;14.50;99.90;;;;;;4999886;28;20061;-85
2021/08/09 06:18:30;;;;;;;10.65;2.88;;;14.50;99.90;;;;;;5007939;28;20057;-85
2021/08/09 06:20:56;;;;;;;5.50;2.15;;;14.60;99.90;;;;;;5009722;28;20029;-86
2021/08/09 06:23:21;;;;;;;8.55;2.58;;;14.60;99.90;;;;;;5002594;28;20022;-86
2021/08/09 06:25:47;;;;;;;8.32;2.28;;;14.80;99.90;;;;;;5008174;28;20506;-86
2021/08/09 06:28:12;;;;;;;10.57;3.33;;;14.90;99.90;;;;;;5009065;28;20026;-86
2021/08/09 06:30:38;;;;;;;14.15;2.75;;;15.00;99.90;;;;;;5012897;28;20038;-85
2021/08/09 06:33:04;;;;;;;8.05;2.70;;;15.10;99.90;;;;;;5008176;28;20019;-85
2021/08/09 06:35:31;;;;;;;8.68;3.10;;;15.30;99.90;;;;;;5005904;28;20034;-86
2021/08/09 06:37:56;;;;;;;8.05;2.50;;;15.40;99.90;;;;;;5012997;28;20018;-86
2021/08/09 06:40:22;;;;;;;5.75;2.17;;;15.50;99.90;;;;;;5003981;28;20100;-87
2021/08/09 06:42:47;;;;;;;14.13;3.33;;;15.70;99.90;;;;;;5005495;28;20036;-87
2021/08/09 06:45:13;;;;;;;6.90;2.35;;;15.80;99.90;;;;;;5012300;28;20057;-86
2021/08/09 06:47:39;;;;;;;9.48;2.92;;;15.90;99.80;;;;;;5010739;28;20018;-87
2021/08/09 06:50:05;;;;;;;7.68;2.70;;;16.00;99.80;;;;;;5011390;28;20034;-88
2021/08/09 06:52:34;;;;;;;7.32;2.20;;;16.10;99.70;;;;;;4998132;28;20061;-87
2021/08/09 06:55:00;;;;;;;8.80;2.22;;;16.20;99.60;;;;;;5007600;28;20407;-87
2021/08/09 06:57:30;;;;;;;8.63;2.65;;;16.30;99.40;;;;;;5010317;28;20019;-85
2021/08/09 06:59:55;;;;;;;5.82;2.42;;;16.40;99.20;;;;;;5010015;28;20037;-87
2021/08/09 07:02:21;;;;;;;6.88;2.22;;;16.50;99.10;;;;;;5010405;28;20079;-85
2021/08/09 07:04:47;;;;;;;8.80;2.65;;;16.50;98.90;;;;;;5002752;28;20117;-86
2021/08/09 07:07:13;;;;;;;5.88;2.08;;;16.60;98.80;;;;;;5011320;28;20022;-85
2021/08/09 07:09:38;;;;;;;7.50;2.28;;;16.80;98.80;;;;;;5006405;28;20038;-86
2021/08/09 07:12:04;;;;;;;7.03;1.77;;;16.90;98.50;;;;;;5005197;28;20029;-86
2021/08/09 07:14:29;;;;;;;16.05;2.42;;;17.00;98.40;;;;;;5007810;28;20065;-86
2021/08/09 07:16:55;;;;;;;6.57;2.03;;;17.00;98.10;;;;;;4993470;28;20394;-86
2021/08/09 07:19:21;;;;;;;5.10;1.63;;;17.10;98.00;;;;;;5007218;28;20096;-86
2021/08/09 07:21:46;;;;;;;5.47;1.80;;;17.20;97.90;;;;;;5010480;28;20026;-86
2021/08/09 07:24:12;;;;;;;4.95;1.35;;;17.30;97.70;;;;;;5010905;28;20542;-86
2021/08/09 07:26:37;;;;;;;5.97;1.33;;;17.30;97.30;;;;;;5012974;28;20029;-86
2021/08/09 07:29:03;;;;;;;4.15;1.50;;;17.40;97.30;;;;;;5012145;28;20036;-86
2021/08/09 07:31:28;;;;;;;6.18;1.90;;;17.50;97.10;;;;;;5005395;28;20037;-86
2021/08/09 07:33:54;;;;;;;3.30;1.48;;;17.50;96.80;;;;;;4999535;28;20101;-86
2021/08/09 07:36:19;;;;;;;9.35;1.60;;;17.50;96.70;;;;;;5008315;28;20098;-86
2021/08/09 07:38:45;;;;;;;4.60;1.48;;;17.60;96.60;;;;;;5010329;28;20018;-86
2021/08/09 07:41:10;;;;;;;6.45;1.23;;;17.70;96.40;;;;;;5013834;28;20026;-86
2021/08/09 07:43:36;;;;;;;6.72;1.70;;;17.80;96.40;;;;;;5013367;28;20129;-85
2021/08/09 07:46:01;;;;;;;7.70;1.52;;;17.90;95.90;;;;;;5017223;28;20049;-87
2021/08/09 07:48:27;;;;;;;6.10;1.30;;;18.00;95.80;;;;;;5018127;28;20021;-86
2021/08/09 07:50:52;;;;;;;6.40;1.50;;;18.10;95.80;;;;;;5014644;28;20033;-85
2021/08/09 07:53:18;;;;;;;7.07;1.70;;;18.20;95.70;;;;;;5013017;28;20031;-87
2021/08/09 07:55:44;;;;;;;9.00;1.42;;;18.20;95.50;;;;;;5015771;28;20504;-85
2021/08/09 07:58:09;;;;;;;4.03;1.20;;;18.40;95.40;;;;;;5012834;28;20066;-86
2021/08/09 08:00:41;;;;;;;4.85;1.23;;;18.50;95.20;;;;;;4999390;28;20545;-86
2021/08/09 08:03:07;;;;;;;5.33;1.27;;;18.50;94.90;;;;;;5012775;28;20084;-87
2021/08/09 08:05:33;;;;;;;3.65;0.90;;;18.60;94.90;;;;;;5011905;28;20061;-86
2021/08/09 08:07:58;;;;;;;6.18;0.95;;;18.70;94.60;;;;;;5006343;28;20034;-87
2021/08/09 08:10:24;;;;;;;6.60;1.15;;;18.70;94.00;;;;;;5016338;28;20034;-86
2021/08/09 08:12:50;;;;;;;4.75;1.02;;;18.80;94.10;;;;;;5005104;28;20065;-87
2021/08/09 08:15:15;;;;;;;7.57;1.05;;;18.90;94.20;;;;;;5013523;28;20025;-87
2021/08/09 08:17:42;;;;;;;4.35;0.75;;;19.00;93.80;;;;;;5004822;28;20026;-86
2021/08/09 08:20:08;;;;;;;5.43;1.00;;;19.20;93.30;;;;;;5016783;28;20033;-86
2021/08/09 08:22:34;;;;;;;4.50;0.85;;;19.20;92.90;;;;;;5015854;28;20482;-86
2021/08/09 08:24:59;;;;;;;3.65;0.50;;;19.30;92.70;;;;;;5009025;28;20035;-86
2021/08/09 08:27:25;;;;;;;3.88;0.70;;;19.40;92.50;;;;;;5005703;28;20027;-85
2021/08/09 08:29:50;;;;;;;5.35;0.80;;;19.50;91.80;;;;;;5012400;28;20037;-87
2021/08/09 08:32:16;;;;;;;3.67;0.70;;;19.60;91.60;;;;;;5016105;28;20038;-87
2021/08/09 08:34:41;;;;;;;4.30;1.00;;;19.70;91.30;;;;;;5014668;28;20126;-87
2021/08/09 08:37:07;;;;;;;4.05;0.60;;;19.90;91.30;;;;;;5010328;28;20045;-88
2021/08/09 08:39:33;;;;;;;6.00;0.85;;;20.10;90.70;;;;;;5008454;28;20386;-88
2021/08/09 08:41:59;;;;;;;4.07;0.68;;;20.00;90.10;;;;;;5016364;28;20026;-87
2021/08/09 08:44:25;;;;;;;3.55;0.95;;;20.10;90.10;;;;;;5013551;28;20022;-86
2021/08/09 08:46:52;;;;;;;2.75;0.50;;;20.20;90.20;;;;;;5013568;28;20033;-87
2021/08/09 08:49:19;;;;;;;4.07;1.17;;;20.20;90.30;;;;;;5013809;28;20030;-85
2021/08/09 08:51:48;;;;;;;6.22;1.00;;;20.40;90.30;;;;;;5013587;28;20117;-86
2021/08/09 08:54:15;;;;;;;2.05;0.60;;;20.50;89.80;;;;;;5011245;28;20080;-87
2021/08/09 08:56:42;;;;;;;2.40;0.60;;;20.50;89.20;;;;;;5015324;28;20022;-85
2021/08/09 08:59:11;;;;;;;2.70;0.70;;;20.50;88.80;;;;;;5014977;28;20029;-86
2021/08/09 09:01:43;;;;;;;4.75;0.60;;;20.40;88.20;;;;;;5013727;28;20429;-87
2021/08/09 09:04:22;;;;;;;2.60;0.70;;;20.40;87.90;;;;;;5013026;28;20045;-85
2021/08/09 09:07:06;;;;;;;5.30;0.93;;;20.30;88.40;;;;;;5011054;28;20046;-87
2021/08/09 09:09:37;;;;;;;2.92;0.60;;;20.50;89.00;;;;;;4999953;28;20038;-87
2021/08/09 09:12:17;;;;;;;3.13;0.50;;;20.60;88.50;;;;;;5012799;28;20129;-87
2021/08/09 09:14:44;;;;;;;6.85;0.85;;;20.70;88.70;;;;;;5012021;28;20038;-88
2021/08/09 09:17:10;;;;;;;3.80;0.50;;;20.80;87.70;;;;;;5014163;28;20030;-86
2021/08/09 09:19:38;;;;;;;4.88;0.75;;;20.90;87.30;;;;;;5014528;28;20033;-86
2021/08/09 09:22:07;;;;;;;3.13;0.70;;;20.80;86.80;;;;;;5012966;28;20054;-86
2021/08/09 09:24:35;;;;;;;4.55;0.70;;;20.80;86.50;;;;;;4998116;28;20396;-87
2021/08/09 09:27:07;;;;;;;4.20;0.80;;;20.80;86.60;;;;;;5002132;28;20040;-87
2021/08/09 09:29:38;;;;;;;3.65;0.73;;;20.90;86.70;;;;;;5014204;28;20052;-87
2021/08/09 09:32:19;;;;;;;6.30;0.70;;;21.00;86.70;;;;;;5007883;28;20125;-86
2021/08/09 09:34:52;;;;;;;3.13;0.50;;;21.20;85.70;;;;;;4994717;28;20058;-87
2021/08/09 09:37:26;;;;;;;4.57;0.75;;;21.20;85.10;;;;;;5012880;28;20030;-85
2021/08/09 09:39:52;;;;;;;5.07;0.63;;;21.30;85.10;;;;;;5014930;28;20026;-86
2021/08/09 09:42:18;;;;;;;5.93;0.70;;;21.40;84.60;;;;;;5014381;28;20079;-86
2021/08/09 09:44:44;;;;;;;4.70;0.73;;;21.40;84.10;;;;;;5014557;28;20660;-86
2021/08/09 09:47:22;;;;;;;7.28;0.70;;;21.40;83.90;;;;;;5015972;28;20030;-86
2021/08/09 09:49:59;;;;;;;4.97;0.60;;;21.60;84.50;;;;;;5015162;28;20165;-86
2021/08/09 09:52:47;;;;;;;3.47;0.73;;;21.60;84.10;;;;;;5013109;28;20026;-86
2021/08/09 09:55:15;;;;;;;4.78;0.60;;;21.60;84.10;;;;;;5001297;28;20409;-86
2021/08/09 09:57:42;;;;;;;3.08;0.50;;;21.40;83.40;;;;;;5010804;28;20021;-86
2021/08/09 10:00:12;;;;;;;4.07;0.50;;;21.40;83.30;;;;;;5012439;28;20027;-86
2021/08/09 10:02:39;;;;;;;4.55;0.52;;;21.30;83.60;;;;;;5002245;28;20038;-86
2021/08/09 10:05:05;;;;;;;3.10;0.60;;;21.30;81.30;;;;;;5013156;28;20049;-86
2021/08/09 10:07:33;;;;;;;2.20;0.65;;;21.50;82.70;;;;;;4996757;28;20034;-85
2021/08/09 10:10:00;;;;;;;3.35;0.50;;;21.70;82.30;;;;;;5012279;28;20038;-86
2021/08/09 10:12:28;;;;;;;2.20;0.45;;;21.80;81.00;;;;;;5004647;28;20118;-85
2021/08/09 10:14:54;;;;;;;2.72;0.40;;;21.90;80.90;;;;;;5006364;28;20090;-86
2021/08/09 10:17:22;;;;;;;2.05;0.40;;;21.80;79.70;;;;;;5011194;28;20061;-86
2021/08/09 10:19:49;;;;;;;4.10;0.40;;;21.80;78.70;;;;;;5012888;28;20034;-86
2021/08/09 10:22:20;;;;;;;3.00;0.43;;;21.90;79.10;;;;;;5013888;28;20026;-86
2021/08/09 10:24:46;;;;;;;3.22;0.57;;;22.00;78.90;;;;;;5000607;28;20030;-86
2021/08/09 10:27:12;;;;;;;2.88;0.50;;;22.00;78.50;;;;;;5000880;28;20038;-86
2021/08/09 10:29:59;;;;;;;4.30;0.40;;;22.10;77.90;;;;;;4994132;28;20454;-87
2021/08/09 10:32:25;;;;;;;3.30;0.40;;;22.20;77.70;;;;;;4993937;28;20030;-86
2021/08/09 10:34:52;;;;;;;1.65;0.40;;;22.10;76.90;;;;;;4994176;28;20605;-86
2021/08/09 10:37:22;;;;;;;3.25;0.45;;;22.10;77.30;;;;;;5008514;28;20470;-86
2021/08/09 10:39:55;;;;;;;2.10;0.38;;;22.10;77.60;;;;;;4992258;28;20022;-86
2021/08/09 10:42:40;;;;;;;1.48;0.40;;;22.30;77.10;;;;;;5003825;28;20560;-87
2021/08/09 10:45:10;;;;;;;2.33;0.30;;;22.50;76.30;;;;;;5012753;28;20033;-87
2021/08/09 10:47:48;;;;;;;2.55;0.40;;;22.40;75.10;;;;;;5000904;28;20026;-86
2021/08/09 10:50:25;;;;;;;3.13;0.50;;;22.20;75.90;;;;;;5001758;28;20042;-87
2021/08/09 10:52:52;;;;;;;2.20;0.35;;;22.10;75.70;;;;;;5012916;28;20029;-87
2021/08/09 10:55:30;;;;;;;3.13;0.40;;;21.90;75.10;;;;;;5011815;28;20072;-87
2021/08/09 10:57:57;;;;;;;1.58;0.30;;;21.70;75.40;;;;;;5009110;28;20033;-88
2021/08/09 11:00:38;;;;;;;2.67;0.40;;;21.60;76.60;;;;;;5010403;28;20116;-88
2021/08/09 11:03:11;;;;;;;2.85;0.63;;;21.40;77.20;;;;;;5001162;28;20054;-88
2021/08/09 11:05:37;;;;;;;3.08;0.40;;;21.10;78.60;;;;;;5006029;28;20042;-87
2021/08/09 11:08:15;;;;;;;4.55;0.50;;;20.80;80.30;;;;;;5026826;28;20112;-88
2021/08/09 11:11:02;;;;;;;3.25;0.40;;;20.50;81.80;;;;;;5006242;28;20041;-85
2021/08/09 11:13:30;;;;;;;3.30;0.50;;;20.40;83.00;;;;;;4999287;28;20065;-86
2021/08/09 11:16:03;;;;;;;3.67;0.57;;;20.30;84.00;;;;;;5012322;28;20111;-86
2021/08/09 11:18:30;;;;;;;2.67;0.50;;;20.30;84.40;;;;;;5017508;28;20514;-85
2021/08/09 11:21:04;;;;;;;2.72;0.50;;;20.50;84.70;;;;;;5016548;28;20528;-86
2021/08/09 11:23:45;;;;;;;2.17;0.43;;;20.60;84.00;;;;;;5016390;28;20053;-85
2021/08/09 11:26:28;;;;;;;3.35;0.40;;;20.70;82.60;;;;;;5011240;28;20505;-86
2021/08/09 11:29:05;;;;;;;1.58;0.45;;;20.70;83.00;;;;;;5013522;28;20149;-86
2021/08/09 11:31:48;;;;;;;2.15;0.40;;;20.80;83.10;;;;;;5017183;28;20124;-86
2021/08/09 11:34:14;;;;;;;4.93;0.50;;;21.10;81.90;;;;;;5017069;28;20030;-85
2021/08/09 11:36:41;;;;;;;2.25;0.30;;;21.20;81.40;;;;;;5016959;28;20018;-85
2021/08/09 11:39:08;;;;;;;3.60;0.57;;;21.40;80.50;;;;;;5022566;28;20424;-85
2021/08/09 11:41:33;;;;;;;4.05;0.75;;;21.40;79.50;;;;;;5024581;28;20392;-85
2021/08/09 11:44:09;;;;;;;3.65;0.43;;;21.50;79.10;;;;;;5016444;28;20121;-85
2021/08/09 11:46:48;;;;;;;3.28;0.70;;;21.60;78.70;;;;;;5018069;28;20053;-85
2021/08/09 11:49:14;;;;;;;2.97;0.50;;;21.60;78.50;;;;;;5016957;28;20137;-85
2021/08/09 11:51:40;;;;;;;3.15;0.60;;;21.60;77.60;;;;;;5016648;28;20061;-86
2021/08/09 11:54:06;;;;;;;3.90;0.50;;;21.50;77.70;;;;;;5015275;28;20026;-86
2021/08/09 11:56:34;;;;;;;0.98;0.30;;;21.60;77.40;;;;;;5014073;28;20040;-85
2021/08/09 11:59:15;;;;;;;2.00;0.28;;;21.60;76.50;;;;;;5014319;28;20026;-85
2021/08/09 12:01:43;;;;;;;4.27;0.50;;;21.60;75.90;;;;;;5015661;28;20033;-85
2021/08/09 12:04:20;;;;;;;2.78;0.60;;;21.50;75.10;;;;;;5016290;28;20482;-85
2021/08/09 12:06:52;;;;;;;2.72;0.40;;;21.40;75.50;;;;;;5016937;28;20037;-86
2021/08/09 12:09:23;;;;;;;1.58;0.30;;;21.30;76.80;;;;;;5003334;28;20035;-85
2021/08/09 12:11:57;;;;;;;2.75;0.40;;;21.30;76.90;;;;;;4998416;28;20479;-86
2021/08/09 12:14:23;;;;;;;1.35;0.40;;;21.50;76.70;;;;;;5015798;28;20618;-86
2021/08/09 12:16:54;;;;;;;2.10;0.38;;;21.70;76.50;;;;;;5015444;28;20058;-86
2021/08/09 12:19:35;;;;;;;3.45;0.40;;;21.80;75.60;;;;;;5014270;28;20053;-85
2021/08/09 12:22:12;;;;;;;1.15;0.30;;;21.80;75.70;;;;;;5014031;28;20040;-85
2021/08/09 12:24:38;;;;;;;1.70;0.40;;;21.70;75.80;;;;;;5015891;28;20389;-86
2021/08/09 12:27:16;;;;;;;2.03;0.40;;;21.60;76.40;;;;;;5015636;28;20036;-86
2021/08/09 12:29:58;;;;;;;2.83;0.35;;;21.60;76.60;;;;;;5015168;28;20398;-86
2021/08/09 12:32:26;;;;;;;1.67;0.30;;;21.60;77.40;;;;;;5012665;28;20378;-85
2021/08/09 12:34:51;;;;;;;3.35;0.30;;;21.70;77.50;;;;;;4996225;28;20037;-86
2021/08/09 12:37:17;;;;;;;3.15;0.47;;;21.70;77.50;;;;;;5013963;28;20390;-85
2021/08/09 12:39:42;;;;;;;3.03;0.40;;;21.80;77.30;;;;;;5011880;28;20018;-86
2021/08/09 12:42:20;;;;;;;3.05;0.32;;;21.80;76.90;;;;;;5013018;28;20054;-86
2021/08/09 12:44:48;;;;;;;3.55;0.50;;;21.70;77.70;;;;;;5015748;28;20033;-85
2021/08/09 12:47:14;;;;;;;2.08;0.38;;;21.90;78.10;;;;;;5016644;28;20050;-85
2021/08/09 12:49:40;;;;;;;3.60;0.38;;;22.10;77.60;;;;;;5015590;28;20116;-87
2021/08/09 12:52:06;;;;;;;2.47;0.40;;;22.30;76.70;;;;;;5015527;28;20026;-86